sensor_id;sensor_type;location;lat;lon;timestamp;P1;durP1;ratioP1;P2;durP2;ratioP2
77206;SDS011;66190;50.708;7.906;2024-02-15T00:02:04;9.30;;;3.20;;
77206;SDS011;66190;50.708;7.906;2024-02-15T00:04:29;9.00;;;3.37;;
77206;SDS011;66190;50.708;7.906;2024-02-15T00:06:56;8.95;;;3.60;;
77206;SDS011;66190;50.708;7.906;2024-02-15T00:09:21;10.63;;;4.57;;
77206;SDS011;66190;50.708;7.906;2024-02-15T00:11:47;8.30;;;3.75;;
77206;SDS011;66190;50.708;7.906;2024-02-15T00:14:12;9.70;;;3.70;;
77206;SDS011;66190;50.708;7.906;2024-02-15T00:16:38;11.67;;;4.53;;
77206;SDS011;66190;50.708;7.906;2024-02-15T00:19:03;13.50;;;6.33;;
77206;SDS011;66190;50.708;7.906;2024-02-15T00:21:28;10.47;;;4.27;;
77206;SDS011;66190;50.708;7.906;2024-02-15T00:23:54;8.57;;;4.33;;
77206;SDS011;66190;50.708;7.906;2024-02-15T00:26:21;9.85;;;4.15;;
77206;SDS011;66190;50.708;7.906;2024-02-15T00:28:47;8.10;;;3.60;;
77206;SDS011;66190;50.708;7.906;2024-02-15T00:31:13;9.77;;;3.95;;
77206;SDS011;66190;50.708;7.906;2024-02-15T00:33:38;9.83;;;4.27;;
77206;SDS011;66190;50.708;7.906;2024-02-15T00:36:04;9.43;;;3.80;;
77206;SDS011;66190;50.708;7.906;2024-02-15T00:38:31;10.25;;;3.70;;
77206;SDS011;66190;50.708;7.906;2024-02-15T00:40:57;10.18;;;3.65;;
77206;SDS011;66190;50.708;7.906;2024-02-15T00:43:24;10.55;;;4.03;;
77206;SDS011;66190;50.708;7.906;2024-02-15T00:45:49;9.05;;;3.90;;
77206;SDS011;66190;50.708;7.906;2024-02-15T00:48:15;12.33;;;4.90;;
77206;SDS011;66190;50.708;7.906;2024-02-15T00:50:40;8.30;;;4.13;;
77206;SDS011;66190;50.708;7.906;2024-02-15T00:53:05;9.80;;;4.00;;
77206;SDS011;66190;50.708;7.906;2024-02-15T00:55:31;7.93;;;3.83;;
77206;SDS011;66190;50.708;7.906;2024-02-15T00:57:57;10.75;;;3.63;;
77206;SDS011;66190;50.708;7.906;2024-02-15T01:00:22;9.33;;;3.70;;
77206;SDS011;66190;50.708;7.906;2024-02-15T01:02:48;8.45;;;3.70;;
77206;SDS011;66190;50.708;7.906;2024-02-15T01:05:14;11.23;;;4.10;;
77206;SDS011;66190;50.708;7.906;2024-02-15T01:07:43;13.32;;;3.70;;
77206;SDS011;66190;50.708;7.906;2024-02-15T01:10:09;11.93;;;3.78;;
77206;SDS011;66190;50.708;7.906;2024-02-15T01:12:34;13.10;;;3.60;;
77206;SDS011;66190;50.708;7.906;2024-02-15T01:15:00;13.97;;;4.47;;
77206;SDS011;66190;50.708;7.906;2024-02-15T01:17:25;9.65;;;3.67;;
77206;SDS011;66190;50.708;7.906;2024-02-15T01:19:51;10.10;;;3.87;;
77206;SDS011;66190;50.708;7.906;2024-02-15T01:22:18;12.55;;;4.20;;
77206;SDS011;66190;50.708;7.906;2024-02-15T01:24:44;8.70;;;3.85;;
77206;SDS011;66190;50.708;7.906;2024-02-15T01:27:10;13.27;;;5.22;;
77206;SDS011;66190;50.708;7.906;2024-02-15T01:29:35;15.13;;;5.67;;
77206;SDS011;66190;50.708;7.906;2024-02-15T01:32:01;12.50;;;4.17;;
77206;SDS011;66190;50.708;7.906;2024-02-15T01:34:27;11.65;;;4.15;;
77206;SDS011;66190;50.708;7.906;2024-02-15T01:36:53;9.45;;;3.90;;
77206;SDS011;66190;50.708;7.906;2024-02-15T01:39:18;9.43;;;4.10;;
77206;SDS011;66190;50.708;7.906;2024-02-15T01:41:48;8.40;;;3.83;;
77206;SDS011;66190;50.708;7.906;2024-02-15T01:44:16;13.75;;;4.72;;
77206;SDS011;66190;50.708;7.906;2024-02-15T01:46:43;10.35;;;4.05;;
77206;SDS011;66190;50.708;7.906;2024-02-15T01:49:08;12.50;;;4.22;;
77206;SDS011;66190;50.708;7.906;2024-02-15T01:51:34;9.73;;;4.30;;
77206;SDS011;66190;50.708;7.906;2024-02-15T01:54:02;9.38;;;3.88;;
77206;SDS011;66190;50.708;7.906;2024-02-15T01:56:28;11.23;;;4.20;;
77206;SDS011;66190;50.708;7.906;2024-02-15T01:58:55;10.18;;;3.90;;
77206;SDS011;66190;50.708;7.906;2024-02-15T02:01:22;13.75;;;5.43;;
77206;SDS011;66190;50.708;7.906;2024-02-15T02:03:47;11.18;;;4.40;;
77206;SDS011;66190;50.708;7.906;2024-02-15T02:06:13;9.57;;;3.90;;
77206;SDS011;66190;50.708;7.906;2024-02-15T02:08:39;12.95;;;4.22;;
77206;SDS011;66190;50.708;7.906;2024-02-15T02:11:04;10.73;;;4.23;;
77206;SDS011;66190;50.708;7.906;2024-02-15T02:13:30;9.87;;;4.27;;
77206;SDS011;66190;50.708;7.906;2024-02-15T02:15:55;12.93;;;4.22;;
77206;SDS011;66190;50.708;7.906;2024-02-15T02:18:21;9.17;;;3.63;;
77206;SDS011;66190;50.708;7.906;2024-02-15T02:20:49;10.90;;;4.25;;
77206;SDS011;66190;50.708;7.906;2024-02-15T02:23:15;9.33;;;4.00;;
77206;SDS011;66190;50.708;7.906;2024-02-15T02:25:43;11.27;;;3.92;;
77206;SDS011;66190;50.708;7.906;2024-02-15T02:28:09;11.07;;;4.43;;
77206;SDS011;66190;50.708;7.906;2024-02-15T02:30:35;11.10;;;4.32;;
77206;SDS011;66190;50.708;7.906;2024-02-15T02:33:01;11.33;;;3.97;;
77206;SDS011;66190;50.708;7.906;2024-02-15T02:35:27;11.37;;;4.23;;
77206;SDS011;66190;50.708;7.906;2024-02-15T02:37:55;9.48;;;3.95;;
77206;SDS011;66190;50.708;7.906;2024-02-15T02:40:21;13.60;;;4.07;;
77206;SDS011;66190;50.708;7.906;2024-02-15T02:45:17;8.87;;;3.60;;
77206;SDS011;66190;50.708;7.906;2024-02-15T02:47:45;11.00;;;4.28;;
77206;SDS011;66190;50.708;7.906;2024-02-15T02:50:17;9.98;;;4.05;;
77206;SDS011;66190;50.708;7.906;2024-02-15T02:52:42;9.98;;;3.80;;
77206;SDS011;66190;50.708;7.906;2024-02-15T02:55:09;10.32;;;4.38;;
77206;SDS011;66190;50.708;7.906;2024-02-15T02:57:35;14.90;;;3.85;;
77206;SDS011;66190;50.708;7.906;2024-02-15T03:00:04;11.15;;;4.70;;
77206;SDS011;66190;50.708;7.906;2024-02-15T03:02:33;10.47;;;4.13;;
77206;SDS011;66190;50.708;7.906;2024-02-15T03:05:01;13.25;;;4.32;;
77206;SDS011;66190;50.708;7.906;2024-02-15T03:07:28;11.27;;;3.72;;
77206;SDS011;66190;50.708;7.906;2024-02-15T03:09:53;9.07;;;3.70;;
77206;SDS011;66190;50.708;7.906;2024-02-15T03:12:19;9.63;;;4.07;;
77206;SDS011;66190;50.708;7.906;2024-02-15T03:14:44;10.33;;;3.60;;
77206;SDS011;66190;50.708;7.906;2024-02-15T03:17:10;9.75;;;4.07;;
77206;SDS011;66190;50.708;7.906;2024-02-15T03:19:36;11.55;;;4.25;;
77206;SDS011;66190;50.708;7.906;2024-02-15T03:22:01;8.35;;;3.88;;
77206;SDS011;66190;50.708;7.906;2024-02-15T03:24:26;10.30;;;4.20;;
77206;SDS011;66190;50.708;7.906;2024-02-15T03:26:52;9.73;;;4.13;;
77206;SDS011;66190;50.708;7.906;2024-02-15T03:29:20;14.48;;;5.00;;
77206;SDS011;66190;50.708;7.906;2024-02-15T03:31:46;10.20;;;4.20;;
77206;SDS011;66190;50.708;7.906;2024-02-15T03:34:12;9.07;;;3.83;;
77206;SDS011;66190;50.708;7.906;2024-02-15T03:36:39;11.43;;;4.28;;
77206;SDS011;66190;50.708;7.906;2024-02-15T03:39:04;10.83;;;4.47;;
77206;SDS011;66190;50.708;7.906;2024-02-15T03:41:31;11.30;;;3.90;;
77206;SDS011;66190;50.708;7.906;2024-02-15T03:43:58;8.98;;;3.47;;
77206;SDS011;66190;50.708;7.906;2024-02-15T03:46:25;10.52;;;4.32;;
77206;SDS011;66190;50.708;7.906;2024-02-15T03:48:50;12.27;;;4.90;;
77206;SDS011;66190;50.708;7.906;2024-02-15T03:51:19;11.02;;;4.88;;
77206;SDS011;66190;50.708;7.906;2024-02-15T03:53:45;9.35;;;3.97;;
77206;SDS011;66190;50.708;7.906;2024-02-15T03:56:12;10.18;;;4.07;;
77206;SDS011;66190;50.708;7.906;2024-02-15T03:58:38;12.50;;;4.30;;
77206;SDS011;66190;50.708;7.906;2024-02-15T04:01:03;12.68;;;4.78;;
77206;SDS011;66190;50.708;7.906;2024-02-15T04:03:34;9.57;;;3.80;;
77206;SDS011;66190;50.708;7.906;2024-02-15T04:06:00;9.13;;;4.10;;
77206;SDS011;66190;50.708;7.906;2024-02-15T04:08:26;9.75;;;3.60;;
77206;SDS011;66190;50.708;7.906;2024-02-15T04:10:52;10.10;;;3.27;;
77206;SDS011;66190;50.708;7.906;2024-02-15T04:13:18;11.20;;;4.10;;
77206;SDS011;66190;50.708;7.906;2024-02-15T04:15:43;8.97;;;3.73;;
77206;SDS011;66190;50.708;7.906;2024-02-15T04:18:12;9.93;;;3.90;;
77206;SDS011;66190;50.708;7.906;2024-02-15T04:20:39;9.30;;;3.88;;
77206;SDS011;66190;50.708;7.906;2024-02-15T04:23:09;9.65;;;4.05;;
77206;SDS011;66190;50.708;7.906;2024-02-15T04:25:35;10.13;;;3.97;;
77206;SDS011;66190;50.708;7.906;2024-02-15T04:28:00;11.53;;;3.83;;
77206;SDS011;66190;50.708;7.906;2024-02-15T04:30:28;10.02;;;4.05;;
77206;SDS011;66190;50.708;7.906;2024-02-15T04:32:57;11.98;;;4.53;;
77206;SDS011;66190;50.708;7.906;2024-02-15T04:35:23;12.80;;;4.10;;
77206;SDS011;66190;50.708;7.906;2024-02-15T04:37:52;10.00;;;4.22;;
77206;SDS011;66190;50.708;7.906;2024-02-15T04:40:18;10.97;;;4.03;;
77206;SDS011;66190;50.708;7.906;2024-02-15T04:42:44;10.73;;;4.47;;
77206;SDS011;66190;50.708;7.906;2024-02-15T04:45:12;12.45;;;4.45;;
77206;SDS011;66190;50.708;7.906;2024-02-15T04:47:39;11.25;;;5.00;;
77206;SDS011;66190;50.708;7.906;2024-02-15T04:50:06;10.68;;;4.25;;
77206;SDS011;66190;50.708;7.906;2024-02-15T04:52:31;11.77;;;4.38;;
77206;SDS011;66190;50.708;7.906;2024-02-15T04:54:57;12.90;;;4.07;;
77206;SDS011;66190;50.708;7.906;2024-02-15T04:57:25;11.73;;;4.22;;
77206;SDS011;66190;50.708;7.906;2024-02-15T04:59:53;15.65;;;5.60;;
77206;SDS011;66190;50.708;7.906;2024-02-15T05:02:19;16.05;;;6.00;;
77206;SDS011;66190;50.708;7.906;2024-02-15T05:04:45;13.53;;;4.60;;
77206;SDS011;66190;50.708;7.906;2024-02-15T05:07:10;10.93;;;4.57;;
77206;SDS011;66190;50.708;7.906;2024-02-15T05:09:36;12.10;;;3.90;;
77206;SDS011;66190;50.708;7.906;2024-02-15T05:12:02;11.43;;;3.60;;
77206;SDS011;66190;50.708;7.906;2024-02-15T05:14:28;13.45;;;4.22;;
77206;SDS011;66190;50.708;7.906;2024-02-15T05:16:53;10.40;;;4.13;;
77206;SDS011;66190;50.708;7.906;2024-02-15T05:19:19;13.27;;;4.27;;
77206;SDS011;66190;50.708;7.906;2024-02-15T05:21:45;10.87;;;3.90;;
77206;SDS011;66190;50.708;7.906;2024-02-15T05:24:14;9.10;;;3.42;;
77206;SDS011;66190;50.708;7.906;2024-02-15T05:26:41;12.70;;;4.93;;
77206;SDS011;66190;50.708;7.906;2024-02-15T05:29:09;14.23;;;4.90;;
77206;SDS011;66190;50.708;7.906;2024-02-15T05:31:36;11.75;;;4.18;;
77206;SDS011;66190;50.708;7.906;2024-02-15T05:34:03;11.82;;;4.22;;
77206;SDS011;66190;50.708;7.906;2024-02-15T05:36:29;11.10;;;4.70;;
77206;SDS011;66190;50.708;7.906;2024-02-15T05:38:55;12.75;;;4.78;;
77206;SDS011;66190;50.708;7.906;2024-02-15T05:41:21;12.83;;;4.50;;
77206;SDS011;66190;50.708;7.906;2024-02-15T05:43:46;10.13;;;4.20;;
77206;SDS011;66190;50.708;7.906;2024-02-15T05:46:13;8.95;;;3.47;;
77206;SDS011;66190;50.708;7.906;2024-02-15T05:48:39;8.88;;;4.00;;
77206;SDS011;66190;50.708;7.906;2024-02-15T05:51:05;12.27;;;4.40;;
77206;SDS011;66190;50.708;7.906;2024-02-15T05:53:31;15.63;;;4.28;;
77206;SDS011;66190;50.708;7.906;2024-02-15T05:56:07;13.07;;;4.00;;
77206;SDS011;66190;50.708;7.906;2024-02-15T05:58:34;10.93;;;4.35;;
77206;SDS011;66190;50.708;7.906;2024-02-15T06:01:00;10.57;;;3.37;;
77206;SDS011;66190;50.708;7.906;2024-02-15T06:03:30;10.43;;;3.85;;
77206;SDS011;66190;50.708;7.906;2024-02-15T06:06:00;10.95;;;4.18;;
77206;SDS011;66190;50.708;7.906;2024-02-15T06:08:27;9.95;;;4.22;;
77206;SDS011;66190;50.708;7.906;2024-02-15T06:10:54;13.82;;;4.30;;
77206;SDS011;66190;50.708;7.906;2024-02-15T06:13:21;13.10;;;4.03;;
77206;SDS011;66190;50.708;7.906;2024-02-15T06:15:47;11.90;;;3.90;;
77206;SDS011;66190;50.708;7.906;2024-02-15T06:18:17;13.40;;;4.18;;
77206;SDS011;66190;50.708;7.906;2024-02-15T06:20:49;11.18;;;3.80;;
77206;SDS011;66190;50.708;7.906;2024-02-15T06:23:18;10.23;;;3.90;;
77206;SDS011;66190;50.708;7.906;2024-02-15T06:25:46;12.63;;;4.20;;
77206;SDS011;66190;50.708;7.906;2024-02-15T06:28:14;12.13;;;4.28;;
77206;SDS011;66190;50.708;7.906;2024-02-15T06:30:58;10.63;;;3.88;;
77206;SDS011;66190;50.708;7.906;2024-02-15T06:33:42;9.38;;;3.92;;
77206;SDS011;66190;50.708;7.906;2024-02-15T06:36:26;14.03;;;4.33;;
77206;SDS011;66190;50.708;7.906;2024-02-15T06:39:10;16.60;;;4.15;;
77206;SDS011;66190;50.708;7.906;2024-02-15T06:41:53;10.77;;;4.05;;
77206;SDS011;66190;50.708;7.906;2024-02-15T06:44:19;12.03;;;3.83;;
77206;SDS011;66190;50.708;7.906;2024-02-15T06:46:44;10.80;;;3.97;;
77206;SDS011;66190;50.708;7.906;2024-02-15T06:49:11;11.48;;;4.75;;
77206;SDS011;66190;50.708;7.906;2024-02-15T06:51:36;13.60;;;4.37;;
77206;SDS011;66190;50.708;7.906;2024-02-15T06:54:02;12.70;;;4.60;;
77206;SDS011;66190;50.708;7.906;2024-02-15T06:56:27;10.02;;;3.92;;
77206;SDS011;66190;50.708;7.906;2024-02-15T06:58:53;13.50;;;4.23;;
77206;SDS011;66190;50.708;7.906;2024-02-15T07:01:19;13.52;;;3.80;;
77206;SDS011;66190;50.708;7.906;2024-02-15T07:03:45;10.83;;;4.00;;
77206;SDS011;66190;50.708;7.906;2024-02-15T07:06:10;11.23;;;4.60;;
77206;SDS011;66190;50.708;7.906;2024-02-15T07:08:38;9.88;;;4.28;;
77206;SDS011;66190;50.708;7.906;2024-02-15T07:11:04;11.82;;;4.10;;
77206;SDS011;66190;50.708;7.906;2024-02-15T07:13:34;10.55;;;3.80;;
77206;SDS011;66190;50.708;7.906;2024-02-15T07:16:01;8.90;;;3.20;;
77206;SDS011;66190;50.708;7.906;2024-02-15T07:18:28;8.83;;;3.70;;
77206;SDS011;66190;50.708;7.906;2024-02-15T07:20:53;8.40;;;3.13;;
77206;SDS011;66190;50.708;7.906;2024-02-15T07:23:19;8.90;;;3.60;;
77206;SDS011;66190;50.708;7.906;2024-02-15T07:25:45;9.55;;;3.20;;
77206;SDS011;66190;50.708;7.906;2024-02-15T07:28:13;12.45;;;3.78;;
77206;SDS011;66190;50.708;7.906;2024-02-15T07:30:39;9.80;;;3.40;;
77206;SDS011;66190;50.708;7.906;2024-02-15T07:33:04;8.85;;;3.25;;
77206;SDS011;66190;50.708;7.906;2024-02-15T07:35:31;11.50;;;3.27;;
77206;SDS011;66190;50.708;7.906;2024-02-15T07:37:58;9.00;;;2.88;;
77206;SDS011;66190;50.708;7.906;2024-02-15T07:40:23;11.13;;;3.27;;
77206;SDS011;66190;50.708;7.906;2024-02-15T07:42:52;10.90;;;3.30;;
77206;SDS011;66190;50.708;7.906;2024-02-15T07:45:18;8.18;;;2.90;;
77206;SDS011;66190;50.708;7.906;2024-02-15T07:47:43;7.43;;;2.77;;
77206;SDS011;66190;50.708;7.906;2024-02-15T07:50:10;10.70;;;2.42;;
77206;SDS011;66190;50.708;7.906;2024-02-15T07:52:35;9.70;;;2.60;;
77206;SDS011;66190;50.708;7.906;2024-02-15T07:55:01;11.07;;;2.80;;
77206;SDS011;66190;50.708;7.906;2024-02-15T07:57:33;8.52;;;2.88;;
77206;SDS011;66190;50.708;7.906;2024-02-15T07:59:59;7.47;;;2.70;;
77206;SDS011;66190;50.708;7.906;2024-02-15T08:02:25;10.00;;;2.60;;
77206;SDS011;66190;50.708;7.906;2024-02-15T08:04:53;7.05;;;2.60;;
77206;SDS011;66190;50.708;7.906;2024-02-15T08:07:19;7.03;;;2.10;;
77206;SDS011;66190;50.708;7.906;2024-02-15T08:09:45;22.05;;;7.30;;
77206;SDS011;66190;50.708;7.906;2024-02-15T08:12:11;10.73;;;3.97;;
77206;SDS011;66190;50.708;7.906;2024-02-15T08:14:37;14.47;;;5.03;;
77206;SDS011;66190;50.708;7.906;2024-02-15T08:17:05;9.80;;;3.33;;
77206;SDS011;66190;50.708;7.906;2024-02-15T08:19:33;10.77;;;4.15;;
77206;SDS011;66190;50.708;7.906;2024-02-15T08:22:03;12.70;;;8.80;;
77206;SDS011;66190;50.708;7.906;2024-02-15T08:24:30;11.82;;;4.47;;
77206;SDS011;66190;50.708;7.906;2024-02-15T08:26:56;7.33;;;3.30;;
77206;SDS011;66190;50.708;7.906;2024-02-15T08:29:24;11.10;;;2.88;;
77206;SDS011;66190;50.708;7.906;2024-02-15T08:31:49;8.30;;;2.47;;
77206;SDS011;66190;50.708;7.906;2024-02-15T08:34:15;7.15;;;2.10;;
77206;SDS011;66190;50.708;7.906;2024-02-15T08:36:41;6.90;;;1.83;;
77206;SDS011;66190;50.708;7.906;2024-02-15T08:39:06;10.60;;;2.77;;
77206;SDS011;66190;50.708;7.906;2024-02-15T08:41:33;8.88;;;3.22;;
77206;SDS011;66190;50.708;7.906;2024-02-15T08:43:59;9.18;;;2.17;;
77206;SDS011;66190;50.708;7.906;2024-02-15T08:46:26;9.90;;;1.90;;
77206;SDS011;66190;50.708;7.906;2024-02-15T08:48:52;7.60;;;1.90;;
77206;SDS011;66190;50.708;7.906;2024-02-15T08:51:17;7.60;;;1.80;;
77206;SDS011;66190;50.708;7.906;2024-02-15T08:53:43;7.93;;;1.98;;
77206;SDS011;66190;50.708;7.906;2024-02-15T08:56:09;6.13;;;1.60;;
77206;SDS011;66190;50.708;7.906;2024-02-15T08:58:35;6.30;;;1.57;;
77206;SDS011;66190;50.708;7.906;2024-02-15T09:01:00;8.88;;;1.75;;
77206;SDS011;66190;50.708;7.906;2024-02-15T09:03:27;6.35;;;1.83;;
77206;SDS011;66190;50.708;7.906;2024-02-15T09:05:53;7.10;;;1.70;;
77206;SDS011;66190;50.708;7.906;2024-02-15T09:08:18;10.13;;;2.10;;
77206;SDS011;66190;50.708;7.906;2024-02-15T09:10:46;11.52;;;2.67;;
77206;SDS011;66190;50.708;7.906;2024-02-15T09:13:12;10.70;;;2.80;;
77206;SDS011;66190;50.708;7.906;2024-02-15T09:15:38;9.15;;;2.33;;
77206;SDS011;66190;50.708;7.906;2024-02-15T09:18:05;7.40;;;1.95;;
77206;SDS011;66190;50.708;7.906;2024-02-15T09:20:34;6.68;;;1.80;;
77206;SDS011;66190;50.708;7.906;2024-02-15T09:23:02;7.13;;;1.80;;
77206;SDS011;66190;50.708;7.906;2024-02-15T09:25:34;10.30;;;2.00;;
77206;SDS011;66190;50.708;7.906;2024-02-15T09:27:59;7.97;;;2.17;;
77206;SDS011;66190;50.708;7.906;2024-02-15T09:30:25;6.90;;;1.95;;
77206;SDS011;66190;50.708;7.906;2024-02-15T09:32:53;11.18;;;2.95;;
77206;SDS011;66190;50.708;7.906;2024-02-15T09:35:18;8.85;;;2.00;;
77206;SDS011;66190;50.708;7.906;2024-02-15T09:37:45;8.50;;;1.97;;
77206;SDS011;66190;50.708;7.906;2024-02-15T09:40:11;6.70;;;1.83;;
77206;SDS011;66190;50.708;7.906;2024-02-15T09:42:38;10.45;;;4.05;;
77206;SDS011;66190;50.708;7.906;2024-02-15T09:45:07;12.60;;;4.13;;
77206;SDS011;66190;50.708;7.906;2024-02-15T09:47:36;7.22;;;2.05;;
77206;SDS011;66190;50.708;7.906;2024-02-15T09:50:05;7.90;;;2.60;;
77206;SDS011;66190;50.708;7.906;2024-02-15T09:52:36;6.75;;;2.22;;
77206;SDS011;66190;50.708;7.906;2024-02-15T09:55:04;14.88;;;4.65;;
77206;SDS011;66190;50.708;7.906;2024-02-15T09:57:30;17.13;;;6.35;;
77206;SDS011;66190;50.708;7.906;2024-02-15T10:00:00;16.50;;;6.90;;
77206;SDS011;66190;50.708;7.906;2024-02-15T10:02:26;9.82;;;3.53;;
77206;SDS011;66190;50.708;7.906;2024-02-15T10:04:53;7.78;;;3.10;;
77206;SDS011;66190;50.708;7.906;2024-02-15T10:07:22;7.20;;;2.33;;
77206;SDS011;66190;50.708;7.906;2024-02-15T10:09:52;6.97;;;2.00;;
77206;SDS011;66190;50.708;7.906;2024-02-15T10:12:18;7.40;;;2.42;;
77206;SDS011;66190;50.708;7.906;2024-02-15T10:14:49;8.77;;;2.20;;
77206;SDS011;66190;50.708;7.906;2024-02-15T10:17:16;6.65;;;1.50;;
77206;SDS011;66190;50.708;7.906;2024-02-15T10:19:43;11.10;;;2.15;;
77206;SDS011;66190;50.708;7.906;2024-02-15T10:22:09;7.27;;;2.03;;
77206;SDS011;66190;50.708;7.906;2024-02-15T10:24:36;6.22;;;2.00;;
77206;SDS011;66190;50.708;7.906;2024-02-15T10:27:04;6.40;;;2.20;;
77206;SDS011;66190;50.708;7.906;2024-02-15T10:29:35;6.65;;;1.92;;
77206;SDS011;66190;50.708;7.906;2024-02-15T10:32:02;6.60;;;1.90;;
77206;SDS011;66190;50.708;7.906;2024-02-15T10:34:28;6.35;;;1.70;;
77206;SDS011;66190;50.708;7.906;2024-02-15T10:36:55;7.25;;;1.83;;
77206;SDS011;66190;50.708;7.906;2024-02-15T10:39:35;4.95;;;1.45;;
77206;SDS011;66190;50.708;7.906;2024-02-15T10:42:00;4.20;;;1.03;;
77206;SDS011;66190;50.708;7.906;2024-02-15T10:44:26;6.25;;;1.73;;
77206;SDS011;66190;50.708;7.906;2024-02-15T10:46:52;7.73;;;2.07;;
77206;SDS011;66190;50.708;7.906;2024-02-15T10:49:19;5.53;;;1.63;;
77206;SDS011;66190;50.708;7.906;2024-02-15T10:51:48;6.55;;;1.60;;
77206;SDS011;66190;50.708;7.906;2024-02-15T10:54:19;6.45;;;1.58;;
77206;SDS011;66190;50.708;7.906;2024-02-15T10:56:58;7.13;;;1.37;;
77206;SDS011;66190;50.708;7.906;2024-02-15T10:59:29;7.05;;;1.25;;
77206;SDS011;66190;50.708;7.906;2024-02-15T11:01:58;6.05;;;1.80;;
77206;SDS011;66190;50.708;7.906;2024-02-15T11:04:24;6.18;;;1.63;;
77206;SDS011;66190;50.708;7.906;2024-02-15T11:06:57;4.90;;;1.55;;
77206;SDS011;66190;50.708;7.906;2024-02-15T11:09:23;5.57;;;1.60;;
77206;SDS011;66190;50.708;7.906;2024-02-15T11:11:53;6.18;;;2.45;;
77206;SDS011;66190;50.708;7.906;2024-02-15T11:16:57;8.00;;;1.60;;
77206;SDS011;66190;50.708;7.906;2024-02-15T11:22:01;6.43;;;2.17;;
77206;SDS011;66190;50.708;7.906;2024-02-15T11:24:32;7.53;;;1.58;;
77206;SDS011;66190;50.708;7.906;2024-02-15T11:27:00;6.00;;;1.60;;
77206;SDS011;66190;50.708;7.906;2024-02-15T11:35:02;5.03;;;1.50;;
77206;SDS011;66190;50.708;7.906;2024-02-15T11:37:54;5.20;;;1.30;;
77206;SDS011;66190;50.708;7.906;2024-02-15T11:43:07;9.57;;;2.25;;
77206;SDS011;66190;50.708;7.906;2024-02-15T11:45:34;7.60;;;1.98;;
77206;SDS011;66190;50.708;7.906;2024-02-15T11:48:04;6.50;;;1.42;;
77206;SDS011;66190;50.708;7.906;2024-02-15T11:50:35;6.68;;;1.50;;
77206;SDS011;66190;50.708;7.906;2024-02-15T11:53:03;6.68;;;1.55;;
77206;SDS011;66190;50.708;7.906;2024-02-15T11:55:32;6.57;;;1.52;;
77206;SDS011;66190;50.708;7.906;2024-02-15T11:57:58;7.82;;;1.58;;
77206;SDS011;66190;50.708;7.906;2024-02-15T12:00:34;5.90;;;1.58;;
77206;SDS011;66190;50.708;7.906;2024-02-15T12:03:18;6.63;;;1.67;;
77206;SDS011;66190;50.708;7.906;2024-02-15T12:06:03;7.25;;;1.65;;
77206;SDS011;66190;50.708;7.906;2024-02-15T12:08:48;6.03;;;1.63;;
77206;SDS011;66190;50.708;7.906;2024-02-15T12:11:33;6.45;;;1.50;;
77206;SDS011;66190;50.708;7.906;2024-02-15T12:14:17;5.65;;;1.27;;
77206;SDS011;66190;50.708;7.906;2024-02-15T12:17:08;5.78;;;1.35;;
77206;SDS011;66190;50.708;7.906;2024-02-15T12:19:56;8.02;;;1.70;;
77206;SDS011;66190;50.708;7.906;2024-02-15T12:22:31;7.68;;;1.95;;
77206;SDS011;66190;50.708;7.906;2024-02-15T12:24:59;5.60;;;1.67;;
77206;SDS011;66190;50.708;7.906;2024-02-15T12:27:26;6.47;;;2.00;;
77206;SDS011;66190;50.708;7.906;2024-02-15T12:29:58;5.80;;;1.45;;
77206;SDS011;66190;50.708;7.906;2024-02-15T12:32:24;5.43;;;1.48;;
77206;SDS011;66190;50.708;7.906;2024-02-15T12:34:52;6.22;;;1.90;;
77206;SDS011;66190;50.708;7.906;2024-02-15T12:37:18;5.95;;;1.83;;
77206;SDS011;66190;50.708;7.906;2024-02-15T12:39:46;6.85;;;1.60;;
77206;SDS011;66190;50.708;7.906;2024-02-15T12:42:12;6.05;;;1.77;;
77206;SDS011;66190;50.708;7.906;2024-02-15T12:44:42;7.22;;;1.60;;
77206;SDS011;66190;50.708;7.906;2024-02-15T12:47:17;5.05;;;1.40;;
77206;SDS011;66190;50.708;7.906;2024-02-15T12:49:43;7.78;;;1.85;;
77206;SDS011;66190;50.708;7.906;2024-02-15T12:55:10;7.47;;;1.90;;
77206;SDS011;66190;50.708;7.906;2024-02-15T12:57:36;5.28;;;1.75;;
77206;SDS011;66190;50.708;7.906;2024-02-15T13:00:05;6.43;;;1.40;;
77206;SDS011;66190;50.708;7.906;2024-02-15T13:02:39;4.95;;;1.50;;
77206;SDS011;66190;50.708;7.906;2024-02-15T13:05:06;5.05;;;1.50;;
77206;SDS011;66190;50.708;7.906;2024-02-15T13:07:38;6.63;;;1.33;;
77206;SDS011;66190;50.708;7.906;2024-02-15T13:10:03;6.72;;;1.45;;
77206;SDS011;66190;50.708;7.906;2024-02-15T13:12:33;6.75;;;1.50;;
77206;SDS011;66190;50.708;7.906;2024-02-15T13:15:00;6.45;;;1.55;;
77206;SDS011;66190;50.708;7.906;2024-02-15T13:17:28;6.07;;;1.55;;
77206;SDS011;66190;50.708;7.906;2024-02-15T13:19:54;7.05;;;1.85;;
77206;SDS011;66190;50.708;7.906;2024-02-15T13:22:27;5.47;;;1.42;;
77206;SDS011;66190;50.708;7.906;2024-02-15T13:24:53;6.40;;;1.60;;
77206;SDS011;66190;50.708;7.906;2024-02-15T13:27:20;5.78;;;1.80;;
77206;SDS011;66190;50.708;7.906;2024-02-15T13:29:48;5.30;;;1.48;;
77206;SDS011;66190;50.708;7.906;2024-02-15T13:32:13;7.65;;;2.90;;
77206;SDS011;66190;50.708;7.906;2024-02-15T13:34:42;8.25;;;1.80;;
77206;SDS011;66190;50.708;7.906;2024-02-15T13:37:07;7.28;;;1.80;;
77206;SDS011;66190;50.708;7.906;2024-02-15T13:39:33;6.30;;;1.67;;
77206;SDS011;66190;50.708;7.906;2024-02-15T13:41:59;6.70;;;1.60;;
77206;SDS011;66190;50.708;7.906;2024-02-15T13:44:26;5.65;;;1.63;;
77206;SDS011;66190;50.708;7.906;2024-02-15T13:46:52;6.37;;;1.87;;
77206;SDS011;66190;50.708;7.906;2024-02-15T13:49:20;9.07;;;1.70;;
77206;SDS011;66190;50.708;7.906;2024-02-15T13:51:46;6.25;;;1.50;;
77206;SDS011;66190;50.708;7.906;2024-02-15T13:54:11;8.97;;;1.90;;
77206;SDS011;66190;50.708;7.906;2024-02-15T13:56:37;7.53;;;1.80;;
77206;SDS011;66190;50.708;7.906;2024-02-15T13:59:04;8.13;;;1.80;;
77206;SDS011;66190;50.708;7.906;2024-02-15T14:01:30;5.80;;;1.73;;
77206;SDS011;66190;50.708;7.906;2024-02-15T14:03:56;8.97;;;3.00;;
77206;SDS011;66190;50.708;7.906;2024-02-15T14:06:21;8.07;;;3.17;;
77206;SDS011;66190;50.708;7.906;2024-02-15T14:08:47;5.43;;;2.03;;
77206;SDS011;66190;50.708;7.906;2024-02-15T14:11:13;7.18;;;1.42;;
77206;SDS011;66190;50.708;7.906;2024-02-15T14:13:38;5.77;;;1.40;;
77206;SDS011;66190;50.708;7.906;2024-02-15T14:16:04;6.93;;;1.50;;
77206;SDS011;66190;50.708;7.906;2024-02-15T14:18:30;5.40;;;1.20;;
77206;SDS011;66190;50.708;7.906;2024-02-15T14:20:56;8.20;;;1.60;;
77206;SDS011;66190;50.708;7.906;2024-02-15T14:23:21;6.47;;;1.30;;
77206;SDS011;66190;50.708;7.906;2024-02-15T14:25:47;5.50;;;1.40;;
77206;SDS011;66190;50.708;7.906;2024-02-15T14:28:15;5.53;;;1.50;;
77206;SDS011;66190;50.708;7.906;2024-02-15T14:30:40;4.82;;;1.50;;
77206;SDS011;66190;50.708;7.906;2024-02-15T14:33:24;4.93;;;1.40;;
77206;SDS011;66190;50.708;7.906;2024-02-15T14:35:52;6.90;;;1.60;;
77206;SDS011;66190;50.708;7.906;2024-02-15T14:38:18;6.15;;;1.30;;
77206;SDS011;66190;50.708;7.906;2024-02-15T14:40:45;5.38;;;1.35;;
77206;SDS011;66190;50.708;7.906;2024-02-15T14:43:25;5.82;;;1.50;;
77206;SDS011;66190;50.708;7.906;2024-02-15T14:45:51;5.22;;;1.00;;
77206;SDS011;66190;50.708;7.906;2024-02-15T14:48:18;8.03;;;1.40;;
77206;SDS011;66190;50.708;7.906;2024-02-15T14:50:45;6.82;;;1.40;;
77206;SDS011;66190;50.708;7.906;2024-02-15T14:53:12;5.68;;;1.25;;
77206;SDS011;66190;50.708;7.906;2024-02-15T14:55:40;8.13;;;1.33;;
77206;SDS011;66190;50.708;7.906;2024-02-15T14:58:08;5.07;;;1.17;;
77206;SDS011;66190;50.708;7.906;2024-02-15T15:00:34;4.57;;;1.20;;
77206;SDS011;66190;50.708;7.906;2024-02-15T15:03:00;4.60;;;1.13;;
77206;SDS011;66190;50.708;7.906;2024-02-15T15:05:25;5.43;;;1.02;;